Flight Track Log - Related Links

Times and Time Zones

All times are in EDT time to prevent confusion due to time zone crossing. See the N569LM flight status page for this flight to view local times or setup timezone preferences in your user account.

Time Position Orientation Groundspeed Altitude Reporting Facility
EDT Latitude Longitude Course Direction KTS MPH feet Rate Location/Type
Sun 05:45:49 PM 29.5294 -98.4678 131° Southeast 145 167 1,400  Level Houston Center
Sun 05:46:43 PM 29.4983 -98.4261 131° Southeast 196 226 3,700 2,704 Climbing Houston Center
Sun 05:47:00 PM 29.4881 -98.4122 130° Southeast 187 215 4,600 2,051 Climbing Houston Center
Sun 05:48:02 PM 29.4344 -98.3975 167° South 230 265 6,400 1,984 Climbing Houston Center
Sun 05:49:04 PM 29.3742 -98.4519 218° Southwest 254 292 8,700 2,081 Climbing Houston Center
Sun 05:50:06 PM 29.3139 -98.5031 216° Southwest 267 307 10,700 1,872 Climbing Houston Center
Sun 05:51:09 PM 29.2414 -98.5561 213° Southwest 285 328 12,600 1,632 Climbing Houston Center
Sun 05:52:11 PM 29.1683 -98.6044 210° Southwest 302 348 14,100 1,452 Climbing Houston Center
Sun 05:53:13 PM 29.0908 -98.6461 205° Southwest 309 356 15,600 1,500 Climbing Houston Center
Sun 05:54:15 PM 29.0031 -98.6900 204° Southwest 321 369 17,200 1,500 Climbing Houston Center
Sun 05:55:17 PM 28.9192 -98.7294 202° Southwest 325 374 18,700 1,452 Climbing Houston Center
Sun 05:56:19 PM 28.8278 -98.7694 201° Southwest 328 377 20,200 1,306 Climbing Houston Center
Sun 05:57:21 PM 28.7442 -98.8139 205° Southwest 332 382 21,400 1,161 Climbing Houston Center
Sun 05:58:23 PM 28.6608 -98.8611 206° Southwest 342 394 22,600 1,016 Climbing Houston Center
Sun 05:59:25 PM 28.5814 -98.9156 211° Southwest 336 387 23,500 919 Climbing Houston Center
Sun 06:00:27 PM 28.5019 -98.9744 213° Southwest 340 391 24,500 864 Climbing Houston Center
Sun 06:01:30 PM 28.4142 -99.0206 205° Southwest 348 400 25,300 720 Climbing Houston Center
Sun 06:02:32 PM 28.3092 -99.0800 206° Southwest 352 405 26,000 339 Climbing Houston Center
Sun 06:03:34 PM 28.2172 -99.1314 206° Southwest 365 420 26,000  Level Houston Center
Sun 06:04:36 PM 28.1233 -99.1839 206° Southwest 375 432 26,000  Level Houston Center
Sun 06:05:38 PM 28.0289 -99.2369 206° Southwest 379 436 26,000  Level Houston Center
Sun 06:06:40 PM 27.9342 -99.2894 206° Southwest 380 437 26,000  Level Houston Center
Sun 06:07:42 PM 27.8206 -99.3533 206° Southwest 382 440 26,000  Level Houston Center
Sun 06:08:44 PM 27.7253 -99.4069 206° Southwest 386 444 26,000  Level Houston Center
Sun 06:09:46 PM 27.6297 -99.4594 206° Southwest 384 442 26,000  Level Houston Center
Sun 06:10:49 PM 27.5347 -99.5125 206° Southwest 383 441 26,000  Level Houston Center
Sun 06:11:51 PM 27.4394 -99.5650 206° Southwest 383 441 26,000  Level Houston Center
Sun 06:13:00 PM 27.3421 -99.5903 196° South  Level FlightAware Approximate
Sun 06:20:00 PM 26.7746 -99.7748 196° South  Level FlightAware Approximate
Sun 06:21:00 PM 26.6934 -99.8009 196° South  Level FlightAware Approximate
Sun 06:22:00 PM 26.6123 -99.8269 196° South  Level FlightAware Approximate
Sun 06:23:00 PM 26.5311 -99.8528 196° South  Level FlightAware Approximate
Sun 06:24:00 PM 26.4500 -99.8788 196° South  Level FlightAware Approximate
Sun 06:25:00 PM 26.3687 -99.9044 195° South  Level FlightAware Approximate
Sun 06:26:00 PM 26.2872 -99.9288 195° South  Level FlightAware Approximate
Sun 06:27:00 PM 26.2058 -99.9536 197° South  Level FlightAware Approximate
Sun 06:28:00 PM 26.1249 -99.9806 197° South  Level FlightAware Approximate
Sun 06:29:00 PM 26.0441 -100.0076 197° South  Level FlightAware Approximate
Sun 06:30:00 PM 25.9628 -100.0329 195° South  Level FlightAware Approximate
Sun 06:31:00 PM 25.8813 -100.0573 195° South  Level FlightAware Approximate
Sun 06:32:00 PM 25.8018 -100.0883 197° South  Level FlightAware Approximate
Sun 06:33:00 PM 25.7972 -100.1407 310° West  Level FlightAware Approximate
Sun 06:34:00 PM 25.8466 -100.2166 304° West  Level FlightAware Approximate
Sun 06:35:00 PM 25.8656 -100.2372 304° West  Level Estimated
Sun 06:36:00 PM 25.8656 -100.2372 304° West  Level Estimated
Sun 06:37:00 PM 25.8656 -100.2372 304° West  Level Estimated
Sun 06:38:00 PM 25.8656 -100.2372 304° West  Level Estimated
Sun 06:39:00 PM 25.8656 -100.2372 304° West  Level Estimated
Sun 06:40:00 PM 25.8656 -100.2372 304° West  Level Estimated
Sun 06:41:00 PM 25.8656 -100.2372 304° West  Level Estimated
Sun 06:42:00 PM 25.8656 -100.2372 304° West  Level Estimated
Sun 06:43:00 PM 25.8656 -100.2372 304° West  Level Estimated
Sun 06:44:00 PM 25.8656 -100.2372 304° West  Level Estimated
Sun 06:45:00 PM 25.8656 -100.2372 304° West  Level Estimated
Sun 06:46:00 PM 25.8656 -100.2372 304° West  Level Estimated
Sun 06:47:00 PM 25.8656 -100.2372 304° West  Level Estimated
Sun 06:48:00 PM 25.8656 -100.2372 304° West  Level Estimated
Sun 06:49:00 PM 25.8656 -100.2372 304° West  Level Estimated
Sun 06:50:00 PM 25.8656 -100.2372 304° West  Level Estimated
Sun 06:51:00 PM 25.8656 -100.2372 304° West  Level Estimated

Login

Don't have an account? Register now (free) for customized features, flight alerts, and more!